Time;durP1;ratioP1;P1;durP2;ratioP2;P2;SDS_P1;SDS_P2;PMS_P1;PMS_P2;Temp;Humidity;BMP_temperature;BMP_pressure;BME280_temperature;BME280_humidity;BME280_pressure;Samples;Min_cycle;Max_cycle;Signal;HPM_P1;HPM_P2
2021/12/15 00:01:37;;;;;;;137.80;43.45;;;4.70;99.90;;;;;;6193373;23;20040;-91
2021/12/15 00:04:30;;;;;;;139.85;43.60;;;4.60;99.90;;;;;;6213722;23;20114;-90
2021/12/15 00:07:24;;;;;;;132.00;44.05;;;4.60;99.90;;;;;;6170797;23;20033;-90
2021/12/15 00:10:59;;;;;;;134.70;44.85;;;4.70;99.90;;;;;;6185959;23;20099;-89
2021/12/15 00:14:03;;;;;;;137.40;43.47;;;4.60;99.90;;;;;;6174434;23;20025;-91
2021/12/15 00:17:09;;;;;;;147.82;43.15;;;4.60;99.90;;;;;;6197264;23;20085;-89
2021/12/15 00:20:51;;;;;;;142.35;43.42;;;4.60;99.90;;;;;;6193286;23;20043;-88
2021/12/15 00:23:51;;;;;;;149.20;42.25;;;4.60;99.90;;;;;;6192563;23;20507;-88
2021/12/15 00:26:42;;;;;;;152.82;46.25;;;4.60;99.90;;;;;;6192892;23;20021;-89
2021/12/15 00:29:40;;;;;;;;;;;;;;;;;;;;;
2021/12/15 00:32:52;;;;;;;155.38;44.13;;;4.60;99.90;;;;;;6185226;23;20033;-89
2021/12/15 00:36:30;;;;;;;;;;;;;;;;;;;;;
2021/12/15 00:39:30;;;;;;;142.98;46.67;;;4.50;99.90;;;;;;6194415;23;20104;-90
2021/12/15 00:42:54;;;;;;;151.82;45.13;;;4.60;99.90;;;;;;6195239;23;20436;-92
2021/12/15 00:46:09;;;;;;;161.75;46.47;;;4.60;99.90;;;;;;6163319;23;20021;-91
2021/12/15 00:49:24;;;;;;;145.77;45.47;;;4.60;99.90;;;;;;6147024;23;20025;-89
2021/12/15 00:52:43;;;;;;;;;;;;;;;;;;;;;
2021/12/15 00:55:44;;;;;;;;;;;;;;;;;;;;;
2021/12/15 00:58:56;;;;;;;154.27;50.58;;;4.60;99.90;;;;;;6162640;23;20029;-88
2021/12/15 01:02:11;;;;;;;;;;;;;;;;;;;;;
2021/12/15 01:05:12;;;;;;;160.23;51.75;;;4.60;99.90;;;;;;6159100;23;20389;-91
2021/12/15 01:08:32;;;;;;;156.77;48.78;;;4.60;99.90;;;;;;6141969;23;20025;-88
2021/12/15 01:21:41;;;;;;;175.40;53.28;;;4.60;99.90;;;;;;6161399;23;20029;-90
2021/12/15 01:25:12;;;;;;;159.35;52.20;;;4.60;99.90;;;;;;6044374;23;20038;-91
2021/12/15 01:28:27;;;;;;;;;;;;;;;;;;;;;
2021/12/15 01:34:53;;;;;;;144.73;49.47;;;4.60;99.90;;;;;;6058032;23;20050;-91
2021/12/15 01:41:38;;;;;;;160.93;52.53;;;4.60;99.90;;;;;;6065750;23;20052;-90
2021/12/15 01:48:18;;;;;;;147.45;51.70;;;4.50;99.90;;;;;;6098599;23;20319;-91
2021/12/15 01:51:09;;;;;;;159.68;54.90;;;4.50;99.90;;;;;;6102955;23;20086;-91
2021/12/15 01:54:22;;;;;;;161.20;55.10;;;4.50;99.90;;;;;;6081726;23;20022;-89
2021/12/15 01:57:33;;;;;;;159.20;55.65;;;4.60;99.90;;;;;;6102831;23;20027;-90
2021/12/15 02:00:49;;;;;;;181.13;58.10;;;4.50;99.90;;;;;;6083600;23;20019;-90
2021/12/15 02:04:00;;;;;;;144.02;49.25;;;4.50;99.90;;;;;;6087190;23;20097;-90
2021/12/15 02:07:16;;;;;;;129.43;46.03;;;4.50;99.90;;;;;;6161559;23;20360;-89
2021/12/15 02:10:23;;;;;;;126.32;46.03;;;4.60;99.90;;;;;;6163050;23;20117;-88
2021/12/15 02:13:36;;;;;;;155.45;49.67;;;4.60;99.90;;;;;;6163519;23;20080;-90
2021/12/15 02:16:45;;;;;;;137.00;46.30;;;4.60;99.90;;;;;;6163479;23;20196;-90
2021/12/15 02:19:33;;;;;;;152.52;49.45;;;4.50;99.90;;;;;;6144692;23;20025;-90
2021/12/15 02:22:43;;;;;;;134.50;44.70;;;4.50;99.90;;;;;;6099623;23;20026;-88
2021/12/15 02:25:50;;;;;;;133.02;45.92;;;4.50;99.90;;;;;;6131685;23;20101;-88
2021/12/15 02:28:47;;;;;;;143.65;47.25;;;4.50;99.90;;;;;;6091991;23;20110;-90
2021/12/15 02:38:27;;;;;;;114.28;42.72;;;4.50;99.90;;;;;;6112450;23;20415;-90
2021/12/15 02:41:20;;;;;;;132.63;44.93;;;4.60;99.90;;;;;;6153500;23;20022;-90
2021/12/15 02:44:41;;;;;;;;;;;;;;;;;;;;;
2021/12/15 02:47:34;;;;;;;124.60;42.45;;;4.50;99.90;;;;;;6127202;23;20026;-90
2021/12/15 02:50:57;;;;;;;135.43;45.15;;;4.50;99.90;;;;;;6113579;23;20505;-90
2021/12/15 02:54:19;;;;;;;;;;;;;;;;;;;;;
2021/12/15 02:57:36;;;;;;;78.25;29.30;;;4.50;99.90;;;;;;6046682;23;20226;-89
2021/12/15 03:00:48;;;;;;;67.25;25.25;;;4.50;99.90;;;;;;6050867;23;20032;-90
2021/12/15 03:04:08;;;;;;;67.57;26.42;;;4.50;99.90;;;;;;6083461;23;20038;-89
2021/12/15 03:07:23;;;;;;;33.95;16.13;;;4.40;99.90;;;;;;6108192;23;20024;-90
2021/12/15 03:16:49;;;;;;;40.92;20.83;;;4.50;99.90;;;;;;6194792;23;20063;-90
2021/12/15 03:20:22;;;;;;;46.13;23.63;;;4.50;99.90;;;;;;6115048;23;20029;-89
2021/12/15 03:23:24;;;;;;;53.28;25.52;;;4.50;99.90;;;;;;6131279;23;20046;-90
2021/12/15 03:26:30;;;;;;;65.10;29.13;;;4.50;99.90;;;;;;6110747;23;20070;-91
2021/12/15 03:36:21;;;;;;;76.03;33.15;;;4.50;99.90;;;;;;6131151;23;20588;-88
2021/12/15 03:42:54;;;;;;;47.90;24.02;;;4.50;99.90;;;;;;6136617;23;20026;-90
2021/12/15 03:46:15;;;;;;;25.65;13.95;;;4.50;99.90;;;;;;6131997;23;20049;-90
2021/12/15 03:49:18;;;;;;;23.15;13.98;;;4.50;99.90;;;;;;6111637;23;20045;-90
2021/12/15 03:52:17;;;;;;;51.13;24.35;;;4.50;99.90;;;;;;6094949;23;20034;-91
2021/12/15 03:55:30;;;;;;;63.47;27.00;;;4.50;99.90;;;;;;6098960;23;20037;-91
2021/12/15 03:58:36;;;;;;;52.17;23.88;;;4.50;99.90;;;;;;6119124;23;20113;-89
2021/12/15 04:01:37;;;;;;;28.92;15.77;;;4.50;99.90;;;;;;6117393;23;20018;-89
2021/12/15 04:05:00;;;;;;;;;;;;;;;;;;;;;
2021/12/15 04:08:15;;;;;;;32.38;17.83;;;4.50;99.90;;;;;;6106702;23;20034;-89
2021/12/15 04:11:54;;;;;;;;;;;;;;;;;;;;;
2021/12/15 04:15:42;;;;;;;;;;;;;;;;;;;;;
2021/12/15 04:19:19;;;;;;;56.17;25.65;;;4.50;99.90;;;;;;6061693;23;20402;-89
2021/12/15 04:22:16;;;;;;;68.40;30.40;;;4.50;99.90;;;;;;6091057;23;20036;-90
2021/12/15 04:25:24;;;;;;;70.70;31.23;;;4.50;99.90;;;;;;6105766;23;20429;-91
2021/12/15 04:29:32;;;;;;;71.60;33.15;;;4.50;99.90;;;;;;6134970;23;20089;-88
2021/12/15 04:32:45;;;;;;;43.15;22.23;;;4.50;99.90;;;;;;6196105;23;20036;-89
2021/12/15 04:35:54;;;;;;;68.70;30.83;;;4.40;99.90;;;;;;6194737;23;20033;-89
2021/12/15 04:38:56;;;;;;;56.47;26.77;;;4.40;99.90;;;;;;6194232;23;20029;-92
2021/12/15 04:42:18;;;;;;;27.92;13.60;;;4.40;99.90;;;;;;6196955;23;20029;-89
2021/12/15 04:49:24;;;;;;;;;;;;;;;;;;;;;
2021/12/15 04:52:41;;;;;;;18.73;10.75;;;4.40;99.90;;;;;;6115555;23;20153;-87
2021/12/15 04:55:39;;;;;;;15.45;10.07;;;4.40;99.90;;;;;;6085967;23;20018;-91
2021/12/15 04:58:45;;;;;;;17.58;9.65;;;4.40;99.90;;;;;;6103530;23;20014;-89
2021/12/15 05:05:28;;;;;;;;;;;;;;;;;;;;;
2021/12/15 05:08:42;;;;;;;25.42;16.80;;;4.40;99.90;;;;;;6211647;23;20232;-92
2021/12/15 05:11:53;;;;;;;27.20;18.88;;;4.40;99.90;;;;;;6233178;22;20012;-91
2021/12/15 05:15:08;;;;;;;20.80;13.27;;;4.40;99.90;;;;;;6209641;22;20012;-90
2021/12/15 05:18:34;;;;;;;18.00;11.63;;;4.50;99.90;;;;;;6203871;23;20047;-92
2021/12/15 05:21:43;;;;;;;12.68;8.02;;;4.40;99.90;;;;;;6213516;23;20431;-91
2021/12/15 05:25:31;;;;;;;15.40;10.30;;;4.40;99.90;;;;;;6207986;23;20028;-91
2021/12/15 05:28:52;;;;;;;;;;;;;;;;;;;;;
2021/12/15 05:32:08;;;;;;;;;;;;;;;;;;;;;
2021/12/15 05:35:33;;;;;;;28.35;18.23;;;4.40;99.90;;;;;;6218335;23;20060;-92
2021/12/15 05:39:01;;;;;;;23.10;14.82;;;4.40;99.90;;;;;;6203636;23;20084;-91
2021/12/15 05:41:50;;;;;;;23.67;15.02;;;4.40;99.90;;;;;;6192858;23;20408;-89
2021/12/15 05:44:39;;;;;;;18.00;12.20;;;4.40;99.90;;;;;;6199743;23;20036;-87
2021/12/15 05:47:27;;;;;;;18.00;12.60;;;4.40;99.90;;;;;;6206866;23;20020;-85
2021/12/15 05:51:23;;;;;;;19.60;13.15;;;4.40;99.90;;;;;;6192139;23;20021;-85
2021/12/15 05:54:12;;;;;;;13.27;8.85;;;4.40;99.90;;;;;;6218552;23;20055;-86
2021/12/15 05:57:01;;;;;;;12.45;9.23;;;4.40;99.90;;;;;;6195646;23;20039;-87
2021/12/15 05:59:52;;;;;;;14.60;10.48;;;4.40;99.90;;;;;;6223350;23;20029;-90
2021/12/15 06:03:09;;;;;;;27.00;18.08;;;4.40;99.90;;;;;;6191032;23;20021;-90
2021/12/15 06:06:02;;;;;;;31.77;19.50;;;4.50;99.90;;;;;;6224279;23;20025;-91
2021/12/15 06:09:47;;;;;;;31.25;19.88;;;4.50;99.90;;;;;;6189685;23;20025;-90
2021/12/15 06:17:25;;;;;;;25.08;16.00;;;4.50;99.90;;;;;;6191806;23;20069;-92
2021/12/15 06:20:16;;;;;;;25.27;16.50;;;4.50;99.90;;;;;;6159907;23;20031;-88
2021/12/15 06:23:47;;;;;;;;;;;;;;;;;;;;;
2021/12/15 06:26:51;;;;;;;20.13;14.23;;;4.40;99.90;;;;;;6188266;23;20095;-89
2021/12/15 06:30:53;;;;;;;17.95;12.30;;;4.40;99.90;;;;;;6097040;23;20037;-89
2021/12/15 06:33:48;;;;;;;18.38;12.35;;;4.40;99.90;;;;;;6065554;23;20026;-91
2021/12/15 06:36:47;;;;;;;19.75;14.27;;;4.40;99.90;;;;;;6098718;23;20101;-90
2021/12/15 06:40:07;;;;;;;19.05;13.90;;;4.40;99.90;;;;;;6101140;23;20477;-88
2021/12/15 06:42:56;;;;;;;17.75;13.40;;;4.40;99.90;;;;;;6097829;23;20088;-89
2021/12/15 06:45:58;;;;;;;18.10;12.95;;;4.40;99.90;;;;;;6089143;23;20389;-89
2021/12/15 06:58:31;;;;;;;24.10;16.30;;;4.40;99.90;;;;;;6187406;23;20041;-89
2021/12/15 07:01:18;;;;;;;26.52;18.80;;;4.30;99.90;;;;;;6187224;23;20114;-90
2021/12/15 07:04:07;;;;;;;17.92;12.32;;;4.30;99.90;;;;;;6167690;23;20037;-90
2021/12/15 07:06:59;;;;;;;15.50;9.27;;;4.30;99.90;;;;;;6186118;23;20029;-86
2021/12/15 07:09:57;;;;;;;17.50;10.73;;;4.30;99.90;;;;;;6189823;23;20025;-87
2021/12/15 07:12:50;;;;;;;12.60;8.32;;;4.30;99.90;;;;;;6187030;23;20021;-87
2021/12/15 07:15:41;;;;;;;12.52;8.73;;;4.30;99.90;;;;;;6190062;23;20091;-88
2021/12/15 07:18:40;;;;;;;13.02;9.13;;;4.30;99.90;;;;;;6171890;23;20083;-89
2021/12/15 07:21:34;;;;;;;15.27;11.00;;;4.30;99.90;;;;;;6190685;23;20025;-88
2021/12/15 07:24:24;;;;;;;15.68;11.13;;;4.30;99.90;;;;;;6192545;23;20100;-89
2021/12/15 07:27:13;;;;;;;14.10;10.50;;;4.30;99.90;;;;;;6191772;23;20025;-86
2021/12/15 07:30:03;;;;;;;17.35;11.85;;;4.30;99.90;;;;;;6191722;23;20025;-88
2021/12/15 07:32:54;;;;;;;19.35;13.32;;;4.30;99.90;;;;;;6194129;23;20100;-87
2021/12/15 07:35:44;;;;;;;22.38;14.35;;;4.30;99.90;;;;;;6196364;23;20039;-89
2021/12/15 07:38:34;;;;;;;18.65;13.52;;;4.30;99.90;;;;;;6195589;23;20047;-88
2021/12/15 07:41:29;;;;;;;23.15;16.23;;;4.30;99.90;;;;;;6189962;23;20021;-89
2021/12/15 07:44:18;;;;;;;27.10;16.58;;;4.30;99.90;;;;;;6186485;23;20025;-88
2021/12/15 07:47:08;;;;;;;32.30;19.25;;;4.30;99.90;;;;;;6189707;23;20025;-89
2021/12/15 07:50:01;;;;;;;30.15;19.80;;;4.30;99.90;;;;;;6189014;23;20025;-87
2021/12/15 07:53:01;;;;;;;28.83;19.75;;;4.40;99.90;;;;;;6171198;23;20049;-86
2021/12/15 07:56:01;;;;;;;31.23;20.88;;;4.30;99.90;;;;;;6187129;23;20033;-90
2021/12/15 07:58:50;;;;;;;32.08;21.45;;;4.30;99.90;;;;;;6188696;23;20056;-89
2021/12/15 08:01:38;;;;;;;35.10;22.27;;;4.30;99.90;;;;;;6190305;23;20051;-89
2021/12/15 08:04:30;;;;;;;38.72;23.05;;;4.30;99.90;;;;;;6192321;23;20025;-89
2021/12/15 08:07:20;;;;;;;38.55;23.35;;;4.30;99.90;;;;;;6191442;23;20100;-87
2021/12/15 08:10:11;;;;;;;40.05;24.65;;;4.30;99.90;;;;;;6188393;23;20112;-90
2021/12/15 08:13:16;;;;;;;40.05;24.10;;;4.30;99.90;;;;;;6173436;23;20029;-88
2021/12/15 08:16:04;;;;;;;43.40;26.25;;;4.30;99.90;;;;;;6191385;23;20135;-88
2021/12/15 08:18:53;;;;;;;50.35;28.23;;;4.30;99.90;;;;;;6193320;23;20021;-87
2021/12/15 08:21:47;;;;;;;;;;;4.30;99.90;;;;;;6191101;23;20344;-90
2021/12/15 08:24:34;;;;;;;48.63;27.02;;;4.30;99.90;;;;;;6188832;23;19916;-87
2021/12/15 08:27:27;;;;;;;55.10;29.25;;;4.30;99.90;;;;;;6173111;23;20024;-90
2021/12/15 08:30:22;;;;;;;46.75;27.85;;;4.30;99.90;;;;;;6194123;23;20082;-90
2021/12/15 08:33:16;;;;;;;43.72;25.60;;;4.30;99.90;;;;;;6174928;23;20126;-90
2021/12/15 08:36:11;;;;;;;46.25;25.92;;;4.30;99.90;;;;;;6191882;23;20029;-88
2021/12/15 08:39:10;;;;;;;40.80;24.67;;;4.30;99.90;;;;;;6192003;23;20060;-86
2021/12/15 08:42:06;;;;;;;41.65;24.33;;;4.40;99.90;;;;;;6196027;23;20029;-88
2021/12/15 08:44:54;;;;;;;37.05;22.33;;;4.40;99.90;;;;;;6201110;23;20031;-87
2021/12/15 08:47:42;;;;;;;36.08;20.70;;;4.40;99.90;;;;;;6207591;23;20017;-87
2021/12/15 08:50:33;;;;;;;39.65;23.58;;;4.40;99.90;;;;;;6188455;23;20009;-88
2021/12/15 08:53:23;;;;;;;40.83;24.33;;;4.40;99.90;;;;;;6198845;23;20037;-87
2021/12/15 08:56:16;;;;;;;35.75;22.13;;;4.40;99.90;;;;;;6194491;23;20060;-89
2021/12/15 08:59:05;;;;;;;27.92;16.80;;;4.40;99.90;;;;;;6189140;23;20033;-90
2021/12/15 09:01:55;;;;;;;31.17;19.08;;;4.40;99.90;;;;;;6190115;23;20424;-87
2021/12/15 09:04:43;;;;;;;27.50;17.05;;;4.40;99.90;;;;;;6170425;23;20053;-88
2021/12/15 09:07:30;;;;;;;23.50;15.85;;;4.40;99.90;;;;;;6190826;23;20021;-88
2021/12/15 09:10:19;;;;;;;24.40;15.20;;;4.40;99.90;;;;;;6189858;23;20025;-87
2021/12/15 09:13:16;;;;;;;23.17;13.45;;;4.40;99.90;;;;;;6190335;23;20044;-88
2021/12/15 09:16:09;;;;;;;20.60;14.23;;;4.40;99.90;;;;;;6191095;23;20127;-89
2021/12/15 09:18:56;;;;;;;;;;;4.30;99.90;;;;;;6191315;23;20119;-88
2021/12/15 09:21:44;;;;;;;22.00;13.32;;;4.40;99.90;;;;;;6188963;23;19942;-87
2021/12/15 09:24:32;;;;;;;20.30;13.77;;;4.40;99.90;;;;;;6166174;23;20084;-89
2021/12/15 09:27:23;;;;;;;18.80;12.32;;;4.40;99.90;;;;;;6190427;23;20089;-87
2021/12/15 09:30:19;;;;;;;19.35;13.38;;;4.40;99.90;;;;;;6204320;23;20036;-89
2021/12/15 09:33:07;;;;;;;20.67;12.98;;;4.40;99.90;;;;;;6195980;23;20025;-88
2021/12/15 09:35:57;;;;;;;16.92;12.07;;;4.40;99.90;;;;;;6189934;23;20039;-87
2021/12/15 09:38:53;;;;;;;14.40;10.63;;;4.40;99.90;;;;;;6189022;23;20077;-87
2021/12/15 09:41:41;;;;;;;;;;;4.40;99.90;;;;;;6189336;23;20044;-88
2021/12/15 09:44:29;;;;;;;15.30;10.65;;;4.30;99.90;;;;;;6189400;23;19959;-87
2021/12/15 09:47:42;;;;;;;14.90;11.05;;;4.30;99.90;;;;;;6172904;23;20021;-85
2021/12/15 10:03:28;;;;;;;9.35;6.75;;;4.40;99.90;;;;;;6186956;23;20314;-89
2021/12/15 10:18:37;;;;;;;11.38;7.70;;;4.40;99.90;;;;;;6216266;23;20020;-88
2021/12/15 10:21:28;;;;;;;14.32;9.15;;;4.30;99.90;;;;;;6199191;23;20035;-87
2021/12/15 10:24:15;;;;;;;13.50;9.30;;;4.30;99.90;;;;;;6198805;23;20040;-85
2021/12/15 10:27:06;;;;;;;13.98;9.27;;;4.30;99.90;;;;;;6180169;23;20372;-87
2021/12/15 10:30:05;;;;;;;17.15;10.48;;;4.30;99.90;;;;;;6224799;23;20024;-88
2021/12/15 10:33:03;;;;;;;15.05;10.20;;;4.30;99.90;;;;;;6196613;23;20308;-89
2021/12/15 10:35:57;;;;;;;13.82;9.95;;;4.40;99.90;;;;;;6217481;23;20318;-88
2021/12/15 10:38:50;;;;;;;15.85;11.20;;;4.40;99.90;;;;;;6217271;23;20036;-90
2021/12/15 10:41:52;;;;;;;14.32;10.32;;;4.40;99.90;;;;;;6197398;23;20020;-89
2021/12/15 10:45:09;;;;;;;17.60;10.15;;;4.50;99.90;;;;;;6218087;23;20037;-88
2021/12/15 10:47:56;;;;;;;14.60;8.90;;;4.50;99.90;;;;;;6199055;23;20122;-88
2021/12/15 10:50:44;;;;;;;13.63;9.95;;;4.40;99.90;;;;;;6198144;23;20028;-89
2021/12/15 10:53:35;;;;;;;13.13;9.05;;;4.40;99.90;;;;;;6217681;23;20040;-89
2021/12/15 10:56:27;;;;;;;14.48;9.98;;;4.40;99.90;;;;;;6216972;23;20025;-86
2021/12/15 10:59:17;;;;;;;14.57;9.40;;;4.40;99.90;;;;;;6218847;23;20075;-89
2021/12/15 11:02:12;;;;;;;16.42;9.73;;;4.30;99.90;;;;;;6199180;23;20040;-89
2021/12/15 11:05:05;;;;;;;14.30;8.63;;;4.40;99.90;;;;;;6196912;23;20125;-89
2021/12/15 11:07:58;;;;;;;14.52;9.75;;;4.40;99.90;;;;;;6196864;23;20408;-86
2021/12/15 11:10:46;;;;;;;11.40;7.45;;;4.40;99.90;;;;;;6198136;23;20099;-87
2021/12/15 11:13:35;;;;;;;10.32;6.80;;;4.30;99.90;;;;;;6195497;23;20127;-88
2021/12/15 11:16:34;;;;;;;10.48;6.95;;;4.20;99.90;;;;;;6196040;23;20029;-91
2021/12/15 11:19:56;;;;;;;11.30;6.93;;;4.10;99.90;;;;;;6197409;23;20025;-90
2021/12/15 11:22:54;;;;;;;9.70;7.28;;;4.00;99.90;;;;;;6219108;23;20024;-89
2021/12/15 11:26:07;;;;;;;10.38;7.38;;;4.10;99.90;;;;;;6195784;23;20067;-88
2021/12/15 11:29:03;;;;;;;11.75;6.90;;;4.10;99.90;;;;;;6218215;23;20059;-91
2021/12/15 11:31:51;;;;;;;10.60;7.15;;;4.10;99.90;;;;;;6199122;23;20087;-89
2021/12/15 11:34:41;;;;;;;9.35;5.88;;;4.20;99.90;;;;;;6179317;23;20108;-88
2021/12/15 11:37:56;;;;;;;7.95;5.82;;;4.30;99.90;;;;;;6198804;23;20036;-89
2021/12/15 11:41:00;;;;;;;8.77;6.07;;;4.40;99.90;;;;;;6195579;23;20032;-88
2021/12/15 11:43:57;;;;;;;10.15;5.75;;;4.50;99.90;;;;;;6197436;23;20400;-87
2021/12/15 11:46:58;;;;;;;10.20;6.97;;;4.50;99.90;;;;;;6196051;23;20025;-89
2021/12/15 11:49:47;;;;;;;8.15;5.95;;;4.50;99.90;;;;;;6199860;23;20020;-88
2021/12/15 11:52:45;;;;;;;8.45;6.15;;;4.40;99.90;;;;;;6207572;23;20033;-89
2021/12/15 11:55:33;;;;;;;8.68;6.15;;;4.30;99.90;;;;;;6207822;23;20028;-88
2021/12/15 11:58:32;;;;;;;11.40;6.32;;;4.20;99.90;;;;;;6190678;23;20111;-87
2021/12/15 12:01:45;;;;;;;7.43;5.75;;;4.20;99.90;;;;;;6231263;23;20095;-88
2021/12/15 12:04:46;;;;;;;9.15;6.38;;;4.30;99.90;;;;;;6239779;22;20017;-89
2021/12/15 12:07:38;;;;;;;9.82;6.70;;;4.40;99.90;;;;;;6215966;23;20099;-88
2021/12/15 12:10:49;;;;;;;10.25;7.25;;;4.40;99.90;;;;;;6209380;23;20063;-87
2021/12/15 12:13:41;;;;;;;11.77;7.70;;;4.40;99.90;;;;;;6209634;23;20036;-89
2021/12/15 12:16:28;;;;;;;10.80;6.70;;;4.40;99.90;;;;;;6201017;23;20048;-90
2021/12/15 12:19:16;;;;;;;10.25;6.85;;;4.50;99.90;;;;;;6203498;23;20029;-89
2021/12/15 12:22:03;;;;;;;9.98;7.05;;;4.30;99.90;;;;;;6200551;23;20035;-87
2021/12/15 12:24:55;;;;;;;12.30;7.15;;;4.30;99.90;;;;;;6224110;23;20024;-88
2021/12/15 12:27:50;;;;;;;13.93;8.27;;;4.30;99.90;;;;;;6223146;23;20025;-89
2021/12/15 12:30:47;;;;;;;13.35;8.23;;;4.20;99.90;;;;;;6203376;23;20024;-90
2021/12/15 12:33:35;;;;;;;15.27;8.57;;;4.10;99.90;;;;;;6206103;23;20103;-89
2021/12/15 12:36:31;;;;;;;11.68;7.80;;;4.10;99.90;;;;;;6222032;23;20024;-91
2021/12/15 12:39:30;;;;;;;12.75;8.48;;;4.10;99.90;;;;;;6184962;23;20036;-87
2021/12/15 12:42:37;;;;;;;10.82;7.75;;;4.10;99.90;;;;;;6207668;23;20025;-88
2021/12/15 12:45:41;;;;;;;12.07;7.75;;;4.20;99.90;;;;;;6234261;23;20090;-89
2021/12/15 12:48:47;;;;;;;14.35;8.10;;;4.10;99.90;;;;;;6192757;23;20044;-89
2021/12/15 13:01:18;;;;;;;14.68;9.85;;;4.20;99.90;;;;;;6236178;23;20088;-88
2021/12/15 13:04:11;;;;;;;15.45;9.27;;;4.20;99.90;;;;;;6233384;23;20069;-89
2021/12/15 13:06:59;;;;;;;12.52;7.45;;;4.20;99.90;;;;;;6212507;23;20028;-87
2021/12/15 13:09:52;;;;;;;14.02;9.35;;;4.20;99.90;;;;;;6216408;23;20024;-88
2021/12/15 13:12:47;;;;;;;15.68;9.95;;;4.20;99.90;;;;;;6213811;23;20024;-89
2021/12/15 13:15:35;;;;;;;14.40;9.27;;;4.10;99.90;;;;;;6195682;23;20043;-88
2021/12/15 13:18:54;;;;;;;16.50;9.70;;;4.10;99.90;;;;;;6197392;23;20063;-88
2021/12/15 13:21:47;;;;;;;13.48;9.30;;;4.10;99.90;;;;;;6210768;23;20025;-89
2021/12/15 13:31:27;;;;;;;15.57;10.05;;;4.20;99.90;;;;;;6235842;23;20019;-87
2021/12/15 13:34:41;;;;;;;18.23;12.05;;;4.10;99.90;;;;;;6237105;23;20047;-88
2021/12/15 13:37:56;;;;;;;43.33;22.77;;;4.10;99.90;;;;;;6234562;23;20028;-89
2021/12/15 13:41:03;;;;;;;21.05;12.63;;;4.10;99.90;;;;;;6237438;22;20024;-88
2021/12/15 13:44:04;;;;;;;17.33;10.18;;;4.10;99.90;;;;;;6216562;23;20008;-87
2021/12/15 13:47:04;;;;;;;19.37;11.40;;;4.10;99.90;;;;;;6234022;23;20036;-89
2021/12/15 13:49:58;;;;;;;15.23;10.70;;;4.10;99.90;;;;;;6197233;23;20373;-87
2021/12/15 13:52:55;;;;;;;19.13;11.02;;;4.20;99.90;;;;;;6199429;23;20039;-90
2021/12/15 13:55:46;;;;;;;14.93;10.00;;;4.10;99.90;;;;;;6221212;23;20031;-89
2021/12/15 13:58:34;;;;;;;16.55;11.07;;;4.00;99.90;;;;;;6203326;23;20029;-88
2021/12/15 14:01:23;;;;;;;17.67;11.57;;;4.10;99.90;;;;;;6228185;23;20032;-89
2021/12/15 14:04:11;;;;;;;18.65;12.00;;;4.00;99.90;;;;;;6203341;23;20094;-90
2021/12/15 14:07:30;;;;;;;19.08;11.65;;;4.00;99.90;;;;;;6226990;23;20284;-88
2021/12/15 14:10:20;;;;;;;18.85;11.93;;;4.00;99.90;;;;;;6222211;23;20116;-90
2021/12/15 14:13:08;;;;;;;17.70;11.77;;;3.90;99.90;;;;;;6199099;23;20046;-89
2021/12/15 14:16:13;;;;;;;16.58;11.32;;;3.90;99.90;;;;;;6202646;23;20343;-90
2021/12/15 14:19:04;;;;;;;19.08;11.85;;;3.90;99.90;;;;;;6223953;23;20028;-86
2021/12/15 14:21:59;;;;;;;16.10;10.63;;;3.90;99.90;;;;;;6203142;23;20103;-87
2021/12/15 14:25:33;;;;;;;17.13;11.05;;;3.90;99.90;;;;;;6193480;23;20415;-90
2021/12/15 14:28:25;;;;;;;;;;;3.90;99.90;;;;;;6194529;23;20029;-90
2021/12/15 14:31:22;;;;;;;25.95;16.27;;;4.00;99.90;;;;;;6194146;23;19927;-88
2021/12/15 14:34:20;;;;;;;17.77;11.70;;;4.00;99.90;;;;;;6192056;23;20035;-89
2021/12/15 14:37:13;;;;;;;18.45;12.45;;;4.00;99.90;;;;;;6193301;23;20048;-89
2021/12/15 14:40:05;;;;;;;20.08;11.73;;;3.90;99.90;;;;;;6193748;23;20025;-87
2021/12/15 14:42:54;;;;;;;17.65;11.98;;;3.90;99.90;;;;;;6170217;23;20086;-88
2021/12/15 14:45:46;;;;;;;35.55;20.75;;;3.90;99.90;;;;;;6193576;23;20425;-87
2021/12/15 14:48:36;;;;;;;22.58;14.80;;;3.90;99.90;;;;;;6192537;23;20021;-89
2021/12/15 14:51:28;;;;;;;18.13;12.18;;;3.90;99.90;;;;;;6191174;23;20065;-89
2021/12/15 14:54:19;;;;;;;20.10;12.82;;;3.90;99.90;;;;;;6190752;23;20044;-89
2021/12/15 14:57:12;;;;;;;20.00;12.60;;;3.90;99.90;;;;;;6195767;23;20052;-88
2021/12/15 15:00:10;;;;;;;22.13;14.00;;;3.90;99.90;;;;;;6225912;23;20021;-90
2021/12/15 15:03:03;;;;;;;22.25;13.23;;;3.90;99.90;;;;;;6209462;23;20047;-89
2021/12/15 15:05:51;;;;;;;19.65;13.02;;;3.90;99.90;;;;;;6199057;23;20052;-89
2021/12/15 15:08:44;;;;;;;19.73;13.05;;;3.80;99.90;;;;;;6199137;23;20100;-90
2021/12/15 15:11:55;;;;;;;;;;;3.80;99.90;;;;;;6187127;23;20024;-89
2021/12/15 15:15:00;;;;;;;18.73;12.70;;;3.80;99.90;;;;;;6199081;23;19923;-86
2021/12/15 15:17:55;;;;;;;19.20;12.00;;;3.80;99.90;;;;;;6205344;23;20381;-87
2021/12/15 15:20:54;;;;;;;20.67;12.73;;;3.80;99.90;;;;;;6212893;23;20021;-89
2021/12/15 15:23:45;;;;;;;20.90;13.00;;;3.80;99.90;;;;;;6213347;23;20024;-89
2021/12/15 15:26:33;;;;;;;21.20;12.88;;;3.80;99.90;;;;;;6211465;23;20016;-87
2021/12/15 15:29:29;;;;;;;20.92;13.50;;;3.80;99.90;;;;;;6215855;22;20030;-90
2021/12/15 15:32:23;;;;;;;21.90;14.88;;;3.80;99.90;;;;;;6265493;22;20020;-88
2021/12/15 15:35:16;;;;;;;22.20;15.30;;;3.80;99.90;;;;;;6260157;23;20027;-88
2021/12/15 15:38:13;;;;;;;23.17;13.98;;;3.80;99.90;;;;;;6262698;22;20087;-89
2021/12/15 15:41:19;;;;;;;23.02;14.15;;;3.80;99.90;;;;;;6260242;23;20027;-90
2021/12/15 15:44:08;;;;;;;21.25;13.85;;;3.80;99.90;;;;;;6255699;22;20086;-88
2021/12/15 15:46:57;;;;;;;23.70;13.77;;;3.80;99.90;;;;;;6250810;22;20088;-90
2021/12/15 15:49:50;;;;;;;23.70;14.18;;;3.70;99.90;;;;;;6231021;22;20024;-89
2021/12/15 15:52:46;;;;;;;26.27;15.05;;;3.80;99.90;;;;;;6250464;22;20024;-88
2021/12/15 15:55:47;;;;;;;21.63;13.85;;;3.70;99.90;;;;;;6251061;23;20080;-89
2021/12/15 15:58:34;;;;;;;21.95;14.02;;;3.70;99.90;;;;;;6258173;23;20055;-87
2021/12/15 16:01:31;;;;;;;25.48;16.38;;;3.80;99.90;;;;;;6262855;23;20035;-89
2021/12/15 16:04:23;;;;;;;24.23;15.13;;;3.80;99.90;;;;;;6238470;23;20048;-87
2021/12/15 16:07:22;;;;;;;21.63;14.52;;;3.80;99.90;;;;;;6230141;22;20111;-90
2021/12/15 16:10:25;;;;;;;21.35;14.85;;;3.80;99.90;;;;;;6218125;23;20040;-87
2021/12/15 16:13:18;;;;;;;23.17;15.15;;;3.80;99.90;;;;;;6218101;23;20040;-90
2021/12/15 16:16:22;;;;;;;23.80;15.40;;;3.80;99.90;;;;;;6219101;22;20043;-89
2021/12/15 16:19:14;;;;;;;24.08;15.38;;;3.80;99.90;;;;;;6218315;23;20280;-87
2021/12/15 16:25:41;;;;;;;25.33;15.90;;;3.70;99.90;;;;;;6221052;23;20024;-89
2021/12/15 16:28:35;;;;;;;26.90;15.73;;;3.70;99.90;;;;;;6197880;23;20031;-89
2021/12/15 16:31:42;;;;;;;21.88;14.45;;;3.80;99.90;;;;;;6220443;23;20084;-89
2021/12/15 16:34:39;;;;;;;22.67;15.48;;;3.80;99.90;;;;;;6222041;23;20040;-88
2021/12/15 16:37:51;;;;;;;21.80;15.43;;;3.80;99.90;;;;;;6160854;23;20492;-88
2021/12/15 16:40:58;;;;;;;23.77;15.48;;;3.80;99.90;;;;;;6137646;23;20029;-88
2021/12/15 16:43:53;;;;;;;23.38;16.02;;;3.80;99.90;;;;;;6135620;23;20362;-90
2021/12/15 16:46:50;;;;;;;26.90;16.40;;;3.80;99.90;;;;;;6137786;23;20084;-90
2021/12/15 16:49:43;;;;;;;25.77;17.48;;;3.80;99.90;;;;;;6138781;23;20129;-88
2021/12/15 16:52:39;;;;;;;25.65;17.77;;;3.70;99.90;;;;;;6157212;23;20025;-90
2021/12/15 16:55:26;;;;;;;27.27;17.98;;;3.70;99.90;;;;;;6140002;23;20416;-88
2021/12/15 16:58:17;;;;;;;28.48;18.55;;;3.70;99.90;;;;;;6136714;23;20034;-89
2021/12/15 17:01:07;;;;;;;31.67;20.15;;;3.70;99.90;;;;;;6137693;23;20025;-88
2021/12/15 17:03:57;;;;;;;33.22;21.92;;;3.70;99.90;;;;;;6147316;23;20040;-89
2021/12/15 17:06:44;;;;;;;27.85;19.65;;;3.70;99.90;;;;;;6174435;23;20086;-89
2021/12/15 17:09:37;;;;;;;26.80;19.23;;;3.70;99.90;;;;;;6221851;23;20028;-88
2021/12/15 17:12:34;;;;;;;34.05;22.27;;;3.70;99.90;;;;;;6221504;23;20094;-88
2021/12/15 17:15:49;;;;;;;31.05;21.75;;;3.70;99.90;;;;;;6198739;23;20687;-89
2021/12/15 17:18:47;;;;;;;35.00;23.15;;;3.70;99.90;;;;;;6221918;23;20055;-90
2021/12/15 17:21:35;;;;;;;32.13;22.70;;;3.70;99.90;;;;;;6198154;23;20032;-88
2021/12/15 17:24:27;;;;;;;31.42;21.38;;;3.70;99.90;;;;;;6177628;23;20031;-90
2021/12/15 17:27:15;;;;;;;34.58;20.52;;;3.70;99.90;;;;;;6202069;23;20331;-89
2021/12/15 17:30:05;;;;;;;29.48;19.50;;;3.70;99.90;;;;;;6178979;23;20035;-89
2021/12/15 17:33:00;;;;;;;29.70;19.27;;;3.70;99.90;;;;;;6159555;23;20037;-88
2021/12/15 17:35:52;;;;;;;30.48;20.23;;;3.70;99.90;;;;;;6187919;23;20029;-90
2021/12/15 17:39:15;;;;;;;27.70;19.13;;;3.80;99.90;;;;;;6188262;23;20084;-87
2021/12/15 17:42:28;;;;;;;28.67;21.02;;;3.80;99.90;;;;;;6170019;23;20095;-90
2021/12/15 17:45:23;;;;;;;41.30;24.98;;;3.70;99.90;;;;;;6170311;23;20021;-88